Time;durP1;ratioP1;P1;durP2;ratioP2;P2;SDS_P1;SDS_P2;PMS_P1;PMS_P2;Temp;Humidity;BMP_temperature;BMP_pressure;BME280_temperature;BME280_humidity;BME280_pressure;Samples;Min_cycle;Max_cycle;Signal;HPM_P1;HPM_P2
2022/01/17 00:02:18;;;;;;;15.50;9.70;;;5.40;99.90;;;;;;4975119;28;20189;-75
2022/01/17 00:04:45;;;;;;;18.10;9.77;;;5.30;99.90;;;;;;4974326;28;20251;-74
2022/01/17 00:07:10;;;;;;;13.10;7.73;;;5.40;99.90;;;;;;4973121;28;20184;-73
2022/01/17 00:09:36;;;;;;;14.00;7.90;;;5.40;99.90;;;;;;4976748;28;20688;-74
2022/01/17 00:12:03;;;;;;;14.37;7.83;;;5.40;99.90;;;;;;4973696;28;20203;-74
2022/01/17 00:14:34;;;;;;;14.50;8.77;;;5.40;99.90;;;;;;4976845;28;20273;-75
2022/01/17 00:17:44;;;;;;;11.77;7.77;;;5.50;99.90;;;;;;4972777;28;20227;-74
2022/01/17 00:19:53;;;;;;;13.30;7.00;;;5.40;99.90;;;;;;4971293;28;20196;-74
2022/01/17 00:22:20;;;;;;;10.93;6.80;;;5.40;99.90;;;;;;4975730;28;20189;-73
2022/01/17 00:24:47;;;;;;;11.17;6.40;;;5.40;99.90;;;;;;4976109;28;20271;-74
2022/01/17 00:27:13;;;;;;;12.23;6.53;;;5.40;99.90;;;;;;4976754;28;20195;-75
2022/01/17 00:29:40;;;;;;;10.27;6.20;;;5.40;99.90;;;;;;4972219;28;20232;-74
2022/01/17 00:32:06;;;;;;;11.30;5.37;;;5.50;99.90;;;;;;4976117;28;20736;-74
2022/01/17 00:34:31;;;;;;;12.73;6.43;;;5.60;99.90;;;;;;4976683;28;20235;-73
2022/01/17 00:36:57;;;;;;;7.63;5.00;;;5.60;99.90;;;;;;4977149;28;20262;-74
2022/01/17 00:39:24;;;;;;;8.83;5.17;;;5.60;99.90;;;;;;4974806;28;20177;-73
2022/01/17 00:41:50;;;;;;;7.60;4.53;;;5.60;99.90;;;;;;4978757;28;20558;-74
2022/01/17 00:44:20;;;;;;;9.30;5.20;;;5.60;99.90;;;;;;4973645;28;20204;-78
2022/01/17 00:46:46;;;;;;;7.43;4.67;;;5.60;99.90;;;;;;4975084;28;20216;-75
2022/01/17 00:49:11;;;;;;;9.13;4.43;;;5.60;99.90;;;;;;4971768;28;20193;-73
2022/01/17 00:51:37;;;;;;;8.33;4.53;;;5.60;99.90;;;;;;4972328;28;20686;-74
2022/01/17 00:54:03;;;;;;;7.43;4.83;;;5.60;99.90;;;;;;4971094;28;20299;-75
2022/01/17 00:56:28;;;;;;;7.20;4.30;;;5.50;99.90;;;;;;4972302;28;20204;-76
2022/01/17 00:58:54;;;;;;;9.00;5.33;;;5.50;99.90;;;;;;4973969;28;20208;-74
2022/01/17 01:01:20;;;;;;;7.93;4.33;;;5.60;99.90;;;;;;4974899;28;20621;-74
2022/01/17 01:03:45;;;;;;;7.97;4.30;;;5.60;99.90;;;;;;4973702;28;20208;-73
2022/01/17 01:06:11;;;;;;;8.17;4.27;;;5.60;99.90;;;;;;4972365;28;20246;-74
2022/01/17 01:08:36;;;;;;;9.30;4.37;;;5.50;99.90;;;;;;4978092;28;20560;-74
2022/01/17 01:11:02;;;;;;;9.53;4.80;;;5.60;99.90;;;;;;4971590;28;20740;-74
2022/01/17 01:13:30;;;;;;;8.10;4.80;;;5.60;99.90;;;;;;4971464;28;20250;-75
2022/01/17 01:21:18;;;;;;;9.07;4.37;;;5.60;99.90;;;;;;4969872;28;20263;-74
2022/01/17 01:29:12;;;;;;;8.37;4.10;;;5.60;99.90;;;;;;4971914;28;20237;-73
2022/01/17 01:34:13;;;;;;;6.63;3.47;;;5.60;99.90;;;;;;4975660;28;20327;-75
2022/01/17 01:36:41;;;;;;;8.83;3.67;;;5.50;99.90;;;;;;4975748;28;20215;-73
2022/01/17 01:39:07;;;;;;;6.47;3.30;;;5.50;99.90;;;;;;4972077;28;20185;-75
2022/01/17 01:41:41;;;;;;;3.17;2.50;;;5.50;99.90;;;;;;4974794;28;20222;-76
2022/01/17 01:44:18;;;;;;;6.83;3.23;;;5.60;99.90;;;;;;4971388;28;20204;-75
2022/01/17 01:46:46;;;;;;;7.20;3.07;;;5.50;99.90;;;;;;4973702;28;20223;-74
2022/01/17 01:49:12;;;;;;;5.53;3.47;;;5.50;99.90;;;;;;4972925;28;20193;-75
2022/01/17 01:51:38;;;;;;;7.77;3.57;;;5.50;99.90;;;;;;4973709;28;20610;-76
2022/01/17 01:54:04;;;;;;;7.77;3.17;;;5.50;99.90;;;;;;4973681;28;20213;-74
2022/01/17 01:56:30;;;;;;;4.70;2.80;;;5.50;99.90;;;;;;4974680;28;20299;-73
2022/01/17 01:58:56;;;;;;;6.13;3.17;;;5.50;99.90;;;;;;4973283;28;20283;-75
2022/01/17 02:01:22;;;;;;;6.87;3.20;;;5.50;99.90;;;;;;4975529;28;20959;-73
2022/01/17 02:03:49;;;;;;;4.40;2.00;;;5.40;99.90;;;;;;4972026;28;20846;-74
2022/01/17 02:06:15;;;;;;;3.87;1.80;;;5.40;99.90;;;;;;4971123;28;20189;-73
2022/01/17 02:08:40;;;;;;;1.63;1.40;;;5.40;99.90;;;;;;4976360;28;20316;-73
2022/01/17 02:11:10;;;;;;;5.77;1.40;;;5.40;99.90;;;;;;4968307;28;20303;-74
2022/01/17 02:13:38;;;;;;;3.03;1.40;;;5.40;99.90;;;;;;4974957;28;20291;-72
2022/01/17 02:16:05;;;;;;;5.03;1.20;;;5.40;99.90;;;;;;4971936;28;20189;-73
2022/01/17 02:18:31;;;;;;;3.47;1.20;;;5.40;99.90;;;;;;4973762;28;20188;-73
2022/01/17 02:21:33;;;;;;;2.30;1.17;;;5.40;99.90;;;;;;4975225;28;20646;-74
2022/01/17 02:23:59;;;;;;;4.33;1.30;;;5.40;99.90;;;;;;4975025;28;20204;-75
2022/01/17 02:26:25;;;;;;;3.40;1.00;;;5.40;99.90;;;;;;4973485;28;20184;-74
2022/01/17 02:28:53;;;;;;;7.87;1.50;;;5.30;99.90;;;;;;4974725;28;20188;-74
2022/01/17 02:31:21;;;;;;;4.20;1.43;;;5.30;99.90;;;;;;4979061;28;20181;-74
2022/01/17 02:33:49;;;;;;;4.70;1.50;;;5.30;99.90;;;;;;4967531;28;20292;-75
2022/01/17 02:36:15;;;;;;;4.53;0.97;;;5.20;99.90;;;;;;4975372;28;20191;-75
2022/01/17 02:38:40;;;;;;;4.97;0.90;;;5.20;99.90;;;;;;4976394;28;20189;-75
2022/01/17 02:41:06;;;;;;;4.07;0.87;;;5.20;99.90;;;;;;4978177;28;20185;-78
2022/01/17 02:43:33;;;;;;;5.93;1.10;;;5.20;99.90;;;;;;4978183;28;20191;-73
2022/01/17 02:48:30;;;;;;;2.60;1.00;;;5.20;99.90;;;;;;4976495;28;20223;-72
2022/01/17 02:50:58;;;;;;;4.13;1.20;;;5.10;99.90;;;;;;4975255;28;20214;-73
2022/01/17 02:53:25;;;;;;;2.83;0.80;;;5.00;99.90;;;;;;4972776;28;20341;-72
2022/01/17 02:55:59;;;;;;;3.83;1.20;;;5.00;99.90;;;;;;4974739;28;20185;-75
2022/01/17 02:58:27;;;;;;;2.23;0.93;;;4.90;99.90;;;;;;4974152;28;20207;-74
2022/01/17 03:00:56;;;;;;;4.73;1.10;;;4.90;99.90;;;;;;4978937;28;20185;-72
2022/01/17 03:03:25;;;;;;;2.67;0.80;;;4.90;99.90;;;;;;4975498;28;20827;-75
2022/01/17 03:05:52;;;;;;;4.03;0.87;;;4.90;99.90;;;;;;4976447;28;20188;-73
2022/01/17 03:08:20;;;;;;;4.00;1.00;;;4.80;99.90;;;;;;4979927;28;20181;-75
2022/01/17 03:10:50;;;;;;;3.20;0.80;;;4.90;99.90;;;;;;4980720;28;20195;-75
2022/01/17 03:13:26;;;;;;;4.60;1.40;;;4.90;99.90;;;;;;4976551;28;20639;-73
2022/01/17 03:15:56;;;;;;;6.00;0.77;;;4.90;99.90;;;;;;4976194;28;20188;-75
2022/01/17 03:18:23;;;;;;;4.77;0.77;;;4.90;99.90;;;;;;4976458;28;20204;-72
2022/01/17 03:20:49;;;;;;;3.07;0.60;;;5.00;99.90;;;;;;4972862;28;20184;-73
2022/01/17 03:23:15;;;;;;;2.37;0.57;;;5.00;99.90;;;;;;4976304;28;20619;-73
2022/01/17 03:25:41;;;;;;;4.80;1.93;;;5.00;99.90;;;;;;4975116;28;20188;-73
2022/01/17 03:28:07;;;;;;;7.23;1.13;;;5.10;99.90;;;;;;4980824;28;20199;-73
2022/01/17 03:30:33;;;;;;;2.97;1.23;;;5.10;99.90;;;;;;4979404;28;20180;-73
2022/01/17 03:33:00;;;;;;;8.10;1.53;;;5.10;99.90;;;;;;4978325;28;20188;-75
2022/01/17 03:35:26;;;;;;;6.57;1.20;;;5.10;99.90;;;;;;4972506;28;20192;-73
2022/01/17 03:37:52;;;;;;;3.10;0.83;;;5.10;99.90;;;;;;4977103;28;20228;-72
2022/01/17 03:40:18;;;;;;;4.00;0.80;;;5.10;99.90;;;;;;4976919;28;20657;-73
2022/01/17 03:42:44;;;;;;;3.23;0.97;;;5.10;99.90;;;;;;4976205;28;20219;-73
2022/01/17 03:45:10;;;;;;;5.83;1.07;;;5.20;99.90;;;;;;4975872;28;20623;-73
2022/01/17 03:47:39;;;;;;;2.70;0.50;;;5.10;99.90;;;;;;4979159;28;20188;-73
2022/01/17 03:50:10;;;;;;;2.07;0.80;;;5.20;99.90;;;;;;4974074;28;20200;-73
2022/01/17 03:52:35;;;;;;;6.03;1.20;;;5.20;99.90;;;;;;4969470;28;20197;-74
2022/01/17 03:55:01;;;;;;;4.27;1.13;;;5.20;99.90;;;;;;4970048;28;20290;-73
2022/01/17 03:57:27;;;;;;;5.03;1.00;;;5.20;99.90;;;;;;4978216;28;20219;-73
2022/01/17 03:59:52;;;;;;;5.47;1.30;;;5.20;99.90;;;;;;4976543;28;20203;-74
2022/01/17 04:02:18;;;;;;;5.87;0.77;;;5.20;99.90;;;;;;4974676;28;20200;-73
2022/01/17 04:04:44;;;;;;;5.13;1.50;;;5.20;99.90;;;;;;4974835;28;20316;-74
2022/01/17 04:07:09;;;;;;;6.70;0.90;;;5.20;99.90;;;;;;4979953;28;20282;-72
2022/01/17 04:09:35;;;;;;;7.07;1.63;;;5.20;99.90;;;;;;4974551;28;20185;-73
2022/01/17 04:12:01;;;;;;;4.90;1.20;;;5.20;99.90;;;;;;4976073;28;20254;-73
2022/01/17 04:14:27;;;;;;;4.33;1.03;;;5.20;99.90;;;;;;4981110;28;20212;-73
2022/01/17 04:16:52;;;;;;;3.13;1.30;;;5.30;99.90;;;;;;4976838;28;21036;-73
2022/01/17 04:19:19;;;;;;;7.20;1.00;;;5.20;99.90;;;;;;4977217;28;20185;-73
2022/01/17 04:21:47;;;;;;;3.87;1.10;;;5.20;99.90;;;;;;4974704;28;20668;-74
2022/01/17 04:24:13;;;;;;;4.43;0.90;;;5.20;99.90;;;;;;4974623;28;20208;-73
2022/01/17 04:26:39;;;;;;;5.50;1.20;;;5.10;99.90;;;;;;4976929;28;20207;-73
2022/01/17 04:29:05;;;;;;;6.13;1.07;;;5.20;99.90;;;;;;4956312;28;20193;-74
2022/01/17 04:31:31;;;;;;;4.53;1.10;;;5.20;99.90;;;;;;4975158;28;20316;-74
2022/01/17 04:33:57;;;;;;;9.83;1.37;;;5.20;99.90;;;;;;4975481;28;20212;-75
2022/01/17 04:36:22;;;;;;;4.20;0.93;;;5.30;99.90;;;;;;4978773;28;20243;-73
2022/01/17 04:38:48;;;;;;;4.07;0.90;;;5.20;99.90;;;;;;4975601;28;20192;-73
2022/01/17 04:41:17;;;;;;;5.50;1.23;;;5.20;99.90;;;;;;4975540;28;20187;-73
2022/01/17 04:46:10;;;;;;;4.83;1.13;;;5.30;99.90;;;;;;4975338;28;20189;-73
2022/01/17 04:48:37;;;;;;;4.87;1.13;;;5.30;99.90;;;;;;4973008;28;20185;-75
2022/01/17 04:51:04;;;;;;;4.67;1.37;;;5.30;99.90;;;;;;4971509;28;20228;-74
2022/01/17 04:53:31;;;;;;;4.30;1.60;;;5.30;99.90;;;;;;4972283;28;20208;-74
2022/01/17 04:55:57;;;;;;;4.73;0.83;;;5.30;99.90;;;;;;4975691;28;20208;-74
2022/01/17 04:58:23;;;;;;;5.07;1.00;;;5.30;99.90;;;;;;4955674;28;20238;-74
2022/01/17 05:00:48;;;;;;;3.80;0.80;;;5.30;99.90;;;;;;4976439;28;20712;-76
2022/01/17 05:03:22;;;;;;;4.53;0.90;;;5.20;99.90;;;;;;4973214;28;20204;-74
2022/01/17 05:05:49;;;;;;;2.07;0.93;;;5.20;99.90;;;;;;4977191;28;20196;-74
2022/01/17 05:08:16;;;;;;;4.13;0.93;;;5.30;99.90;;;;;;4975298;28;20668;-74
2022/01/17 05:10:45;;;;;;;4.73;1.03;;;5.20;99.90;;;;;;4974679;28;20177;-74
2022/01/17 05:13:15;;;;;;;5.87;1.00;;;5.30;99.90;;;;;;4973157;28;20231;-74
2022/01/17 05:15:47;;;;;;;7.50;1.07;;;5.20;99.90;;;;;;4974547;28;20177;-75
2022/01/17 05:19:47;;;;;;;6.00;1.47;;;5.30;99.90;;;;;;4972838;28;20770;-74
2022/01/17 05:20:59;;;;;;;3.00;0.73;;;5.30;99.90;;;;;;4972834;28;20220;-73
2022/01/17 05:23:25;;;;;;;9.27;1.07;;;5.30;99.90;;;;;;4976682;28;20230;-74
2022/01/17 05:25:50;;;;;;;7.13;1.17;;;5.30;99.90;;;;;;4975354;28;20272;-73
2022/01/17 05:28:16;;;;;;;4.47;0.90;;;5.30;99.90;;;;;;4969205;28;20211;-74
2022/01/17 05:30:42;;;;;;;3.43;1.00;;;5.30;99.90;;;;;;4972172;28;20280;-75
2022/01/17 05:33:07;;;;;;;5.77;1.30;;;5.30;99.90;;;;;;4965569;28;20217;-75
2022/01/17 05:35:33;;;;;;;4.57;0.77;;;5.30;99.90;;;;;;4971953;28;20215;-76
2022/01/17 05:37:59;;;;;;;8.50;1.77;;;5.30;99.90;;;;;;4973199;28;20299;-73
2022/01/17 05:40:25;;;;;;;6.70;0.90;;;5.30;99.90;;;;;;4972877;28;20177;-74
2022/01/17 05:42:50;;;;;;;7.17;1.23;;;5.30;99.90;;;;;;4973127;28;20200;-73
2022/01/17 05:45:17;;;;;;;5.73;1.10;;;5.20;99.90;;;;;;4971530;28;20242;-74
2022/01/17 05:47:44;;;;;;;4.20;1.10;;;5.30;99.90;;;;;;4978971;28;20268;-74
2022/01/17 05:50:10;;;;;;;5.80;0.90;;;5.30;99.90;;;;;;4973836;28;20220;-75
2022/01/17 05:52:36;;;;;;;5.27;1.93;;;5.30;99.90;;;;;;4977669;28;20660;-73
2022/01/17 05:55:04;;;;;;;6.83;1.27;;;5.30;99.90;;;;;;4973059;28;20220;-76
2022/01/17 05:57:30;;;;;;;6.07;1.40;;;5.20;99.90;;;;;;4972898;28;20212;-73
2022/01/17 05:59:55;;;;;;;5.37;0.83;;;5.30;99.90;;;;;;4972855;28;20197;-74
2022/01/17 06:02:21;;;;;;;3.83;1.17;;;5.20;99.90;;;;;;4956618;28;20213;-75
2022/01/17 06:04:47;;;;;;;6.53;1.20;;;5.30;99.90;;;;;;4975906;28;20211;-73
2022/01/17 06:07:13;;;;;;;6.37;1.10;;;5.20;99.90;;;;;;4975198;28;20192;-76
2022/01/17 06:09:38;;;;;;;5.03;1.37;;;5.20;99.90;;;;;;4973606;28;20192;-74
2022/01/17 06:12:05;;;;;;;6.13;1.53;;;5.10;99.90;;;;;;4977095;28;20188;-74
2022/01/17 06:14:31;;;;;;;7.47;1.10;;;5.10;99.90;;;;;;4979190;28;20206;-74
2022/01/17 06:16:57;;;;;;;5.77;0.90;;;5.10;99.90;;;;;;4976562;28;20208;-75
2022/01/17 06:19:22;;;;;;;7.77;1.30;;;5.10;99.90;;;;;;4981391;28;20559;-74
2022/01/17 06:21:48;;;;;;;8.23;1.50;;;5.10;99.90;;;;;;4958992;28;20183;-74
2022/01/17 06:24:14;;;;;;;4.40;1.20;;;5.10;99.90;;;;;;4976199;28;20204;-74
2022/01/17 06:26:41;;;;;;;5.10;1.00;;;5.10;99.90;;;;;;4977344;28;20192;-73
2022/01/17 06:29:08;;;;;;;5.63;1.40;;;5.10;99.90;;;;;;4984776;28;20230;-73
2022/01/17 06:31:35;;;;;;;5.10;1.07;;;5.00;99.90;;;;;;4978027;28;20195;-76
2022/01/17 06:34:01;;;;;;;6.67;1.73;;;5.10;99.90;;;;;;4974904;28;20255;-76
2022/01/17 06:36:27;;;;;;;4.53;1.10;;;5.10;99.90;;;;;;4974848;28;20572;-74
2022/01/17 06:38:53;;;;;;;5.77;1.30;;;5.00;99.90;;;;;;4979079;28;20195;-74
2022/01/17 06:41:19;;;;;;;4.63;1.43;;;5.10;99.90;;;;;;4978207;28;20177;-74
2022/01/17 06:43:45;;;;;;;6.63;0.80;;;5.00;99.90;;;;;;4963306;28;20211;-73
2022/01/17 06:46:11;;;;;;;4.67;1.17;;;5.00;99.90;;;;;;4974303;28;20247;-74
2022/01/17 06:48:37;;;;;;;4.90;1.47;;;5.00;99.90;;;;;;4973167;28;20644;-74
2022/01/17 06:51:03;;;;;;;5.20;1.30;;;5.00;99.90;;;;;;4975613;28;20196;-74
2022/01/17 06:53:29;;;;;;;6.27;1.30;;;5.00;99.90;;;;;;4976088;28;20750;-74
2022/01/17 06:55:55;;;;;;;4.93;1.47;;;5.00;99.90;;;;;;4960412;28;20546;-75
2022/01/17 06:58:22;;;;;;;6.17;1.13;;;5.00;99.90;;;;;;4974835;28;20274;-74
2022/01/17 07:00:48;;;;;;;3.40;0.90;;;5.00;99.90;;;;;;4976062;28;20181;-74
2022/01/17 07:03:14;;;;;;;7.37;1.10;;;5.00;99.90;;;;;;4977238;28;20222;-74
2022/01/17 07:05:40;;;;;;;6.47;1.20;;;5.00;99.90;;;;;;4974088;28;20744;-76
2022/01/17 07:08:06;;;;;;;5.13;1.17;;;5.00;99.90;;;;;;4971285;28;20189;-73
2022/01/17 07:10:32;;;;;;;5.23;0.93;;;5.10;99.90;;;;;;4973178;28;20196;-74
2022/01/17 07:12:57;;;;;;;4.37;1.40;;;5.10;99.90;;;;;;4976603;28;20212;-74
2022/01/17 07:15:23;;;;;;;2.83;1.00;;;5.10;99.90;;;;;;4956324;28;20188;-74
2022/01/17 07:17:49;;;;;;;5.50;1.30;;;5.10;99.90;;;;;;4977947;28;20208;-73
2022/01/17 07:20:15;;;;;;;8.60;1.20;;;5.20;99.90;;;;;;4973932;28;20193;-75
2022/01/17 07:22:41;;;;;;;8.47;1.53;;;5.10;99.90;;;;;;4975632;28;20268;-76
2022/01/17 07:25:07;;;;;;;4.13;0.90;;;5.10;99.90;;;;;;4957817;28;20215;-75
2022/01/17 07:27:33;;;;;;;4.63;1.10;;;5.20;99.90;;;;;;4976749;28;20172;-74
2022/01/17 07:29:59;;;;;;;4.43;0.93;;;5.20;99.90;;;;;;4973139;28;20180;-73
2022/01/17 07:32:26;;;;;;;4.63;1.20;;;5.20;99.90;;;;;;4978240;28;20204;-74
2022/01/17 07:34:52;;;;;;;5.10;1.17;;;5.20;99.90;;;;;;4971860;28;20204;-74
2022/01/17 07:37:18;;;;;;;6.57;1.60;;;5.20;99.90;;;;;;4976176;28;20653;-73
2022/01/17 07:39:44;;;;;;;5.50;1.13;;;5.20;99.90;;;;;;4975548;28;20180;-76
2022/01/17 07:42:10;;;;;;;4.07;1.00;;;5.20;99.90;;;;;;4977331;28;20193;-73
2022/01/17 07:44:37;;;;;;;3.00;0.90;;;5.30;99.90;;;;;;4980671;28;20211;-74
2022/01/17 07:47:05;;;;;;;4.47;1.30;;;5.20;99.90;;;;;;4971394;28;20246;-73
2022/01/17 07:49:31;;;;;;;2.83;1.33;;;5.20;99.90;;;;;;4968860;28;20295;-74
2022/01/17 07:52:03;;;;;;;6.30;1.00;;;5.30;99.90;;;;;;4972892;28;20208;-74
2022/01/17 07:54:32;;;;;;;3.13;1.20;;;5.30;99.90;;;;;;4972472;28;20262;-74
2022/01/17 07:57:00;;;;;;;3.83;0.70;;;5.30;99.90;;;;;;4972836;28;20217;-74
2022/01/17 07:59:27;;;;;;;5.17;1.37;;;5.30;99.90;;;;;;4974319;28;20208;-73
2022/01/17 08:01:53;;;;;;;4.00;0.90;;;5.40;99.90;;;;;;4966449;28;20207;-73
2022/01/17 08:04:19;;;;;;;4.13;1.20;;;5.40;99.90;;;;;;4970394;28;20200;-74
2022/01/17 08:06:46;;;;;;;5.17;1.23;;;5.40;99.90;;;;;;4971492;28;20189;-75
2022/01/17 08:09:21;;;;;;;6.63;1.13;;;5.40;99.90;;;;;;4970633;28;20703;-76
2022/01/17 08:11:49;;;;;;;2.93;0.90;;;5.40;99.90;;;;;;4974410;28;20777;-73
2022/01/17 08:14:15;;;;;;;6.80;1.53;;;5.30;99.90;;;;;;4971056;28;20303;-73
2022/01/17 08:16:40;;;;;;;3.73;1.00;;;5.50;99.90;;;;;;4973283;28;20616;-76
2022/01/17 08:19:06;;;;;;;4.17;1.00;;;5.40;99.90;;;;;;4968230;28;20193;-75
2022/01/17 08:21:32;;;;;;;3.60;1.00;;;5.50;99.90;;;;;;4975094;28;20655;-74
2022/01/17 08:23:59;;;;;;;2.97;1.20;;;5.40;99.90;;;;;;4971279;28;20294;-76
2022/01/17 08:26:25;;;;;;;4.87;1.60;;;5.50;99.90;;;;;;4976169;28;20191;-75
2022/01/17 08:28:52;;;;;;;2.73;1.13;;;5.50;99.90;;;;;;4974872;28;20197;-73
2022/01/17 08:31:18;;;;;;;1.87;1.10;;;5.50;99.90;;;;;;4970264;28;20189;-74
2022/01/17 08:33:44;;;;;;;3.60;0.97;;;5.60;99.90;;;;;;4968851;28;20259;-73
2022/01/17 08:36:11;;;;;;;3.37;0.90;;;5.50;99.90;;;;;;4971270;28;20201;-73
2022/01/17 08:38:37;;;;;;;2.80;1.30;;;5.50;99.90;;;;;;4967694;28;20216;-73
2022/01/17 08:41:03;;;;;;;4.10;0.90;;;5.40;99.90;;;;;;4970122;28;20247;-73
2022/01/17 08:43:28;;;;;;;3.70;1.07;;;5.50;99.90;;;;;;4970760;28;20643;-74
2022/01/17 08:45:54;;;;;;;3.03;1.20;;;5.50;99.90;;;;;;4967740;28;20199;-74
2022/01/17 08:48:20;;;;;;;4.67;1.20;;;5.50;99.90;;;;;;4966123;28;20197;-73
2022/01/17 08:50:47;;;;;;;2.80;0.80;;;5.50;99.90;;;;;;4970284;28;20278;-74
2022/01/17 08:53:14;;;;;;;3.23;1.20;;;5.50;99.90;;;;;;4973639;28;20614;-73
2022/01/17 08:55:43;;;;;;;2.47;0.90;;;5.50;99.90;;;;;;4950035;28;20538;-73
2022/01/17 08:58:09;;;;;;;4.13;1.40;;;5.50;99.90;;;;;;4974355;28;20765;-73
2022/01/17 09:00:36;;;;;;;2.50;1.10;;;5.50;99.90;;;;;;4970026;28;20295;-74
2022/01/17 09:03:02;;;;;;;3.43;1.30;;;5.50;99.90;;;;;;4970249;28;20538;-74
2022/01/17 09:05:29;;;;;;;5.00;1.50;;;5.60;99.90;;;;;;4971407;28;20567;-74
2022/01/17 09:07:55;;;;;;;3.87;1.47;;;5.60;99.90;;;;;;4969182;28;20188;-74
2022/01/17 09:10:21;;;;;;;4.57;1.00;;;5.60;99.90;;;;;;4968699;28;20192;-73
2022/01/17 09:12:46;;;;;;;3.37;1.10;;;5.60;99.90;;;;;;4969191;28;20208;-73
2022/01/17 09:15:13;;;;;;;3.87;1.10;;;5.60;99.90;;;;;;4968035;28;20192;-75
2022/01/17 09:17:39;;;;;;;3.17;1.20;;;5.60;99.90;;;;;;4972351;28;20672;-74
2022/01/17 09:20:06;;;;;;;4.63;1.10;;;5.60;99.90;;;;;;4954968;28;20188;-73
2022/01/17 09:22:32;;;;;;;3.23;1.00;;;5.60;99.90;;;;;;4955641;28;20191;-74
2022/01/17 09:24:58;;;;;;;1.83;0.83;;;5.60;99.90;;;;;;4968133;28;20577;-73
2022/01/17 09:27:24;;;;;;;3.07;1.07;;;5.60;99.90;;;;;;4974018;28;20282;-73
2022/01/17 09:29:51;;;;;;;2.67;1.10;;;5.70;99.90;;;;;;4970751;28;20661;-74
2022/01/17 09:32:16;;;;;;;4.03;1.67;;;5.70;99.90;;;;;;4967089;28;20197;-73
2022/01/17 09:34:43;;;;;;;3.50;1.10;;;5.70;99.90;;;;;;4973107;28;20235;-73
2022/01/17 09:37:10;;;;;;;5.67;1.40;;;5.70;99.90;;;;;;4972619;28;20582;-74
2022/01/17 09:39:37;;;;;;;3.70;1.60;;;5.70;99.90;;;;;;4971485;28;20216;-74
2022/01/17 09:42:06;;;;;;;2.00;1.00;;;5.70;99.90;;;;;;4970849;28;20180;-73
2022/01/17 09:44:36;;;;;;;1.50;0.87;;;5.80;99.90;;;;;;4970914;28;20204;-75
2022/01/17 09:47:10;;;;;;;3.37;1.10;;;5.70;99.90;;;;;;4965236;28;20197;-75
2022/01/17 09:49:57;;;;;;;4.00;1.20;;;5.70;99.90;;;;;;4972003;28;20179;-74
2022/01/17 09:52:34;;;;;;;1.90;1.20;;;5.80;99.90;;;;;;4973836;28;20188;-74
2022/01/17 09:55:06;;;;;;;2.23;1.07;;;5.80;99.90;;;;;;4971111;28;20211;-74
2022/01/17 09:57:38;;;;;;;3.40;1.30;;;5.90;99.90;;;;;;4977756;28;20303;-74
2022/01/17 10:00:04;;;;;;;3.57;1.23;;;5.90;99.90;;;;;;4972296;28;20224;-75
2022/01/17 10:02:30;;;;;;;2.60;1.67;;;5.90;99.90;;;;;;4973481;28;20222;-74
2022/01/17 10:04:55;;;;;;;6.70;2.23;;;5.90;99.90;;;;;;4973093;28;20286;-72
2022/01/17 10:07:21;;;;;;;6.03;1.20;;;5.90;99.90;;;;;;4975211;28;20603;-73
2022/01/17 10:09:59;;;;;;;3.77;1.50;;;5.90;99.90;;;;;;4975273;28;20219;-74
2022/01/17 10:12:24;;;;;;;3.60;1.50;;;6.00;99.90;;;;;;4965412;28;20603;-73
2022/01/17 10:15:03;;;;;;;2.13;1.47;;;6.00;99.90;;;;;;4952804;28;20213;-74
2022/01/17 10:17:46;;;;;;;5.70;1.57;;;6.00;99.90;;;;;;4976004;28;20207;-73
2022/01/17 10:20:15;;;;;;;3.87;1.30;;;6.10;99.90;;;;;;4968791;28;20195;-74
2022/01/17 10:22:55;;;;;;;2.97;1.53;;;6.20;99.90;;;;;;4956445;28;20538;-74
2022/01/17 10:25:39;;;;;;;4.57;1.13;;;6.20;99.90;;;;;;4951715;28;20594;-73
2022/01/17 10:29:04;;;;;;;5.73;1.40;;;6.30;99.90;;;;;;4975168;28;20193;-73
2022/01/17 10:36:55;;;;;;;5.37;1.60;;;6.30;99.90;;;;;;4974252;28;20277;-75
2022/01/17 10:39:21;;;;;;;2.40;1.40;;;6.50;99.90;;;;;;4973619;28;20176;-75
2022/01/17 10:41:47;;;;;;;4.07;1.90;;;6.40;99.90;;;;;;4954192;28;20649;-74
2022/01/17 10:44:33;;;;;;;6.47;2.13;;;6.50;99.90;;;;;;4973755;28;20227;-74
2022/01/17 10:47:21;;;;;;;5.47;1.90;;;6.60;99.90;;;;;;4973382;28;20221;-73
2022/01/17 10:49:59;;;;;;;4.73;1.80;;;6.60;99.90;;;;;;4974286;28;20712;-74
2022/01/17 10:52:30;;;;;;;4.03;1.90;;;6.60;99.90;;;;;;4971342;28;20644;-75
2022/01/17 10:55:01;;;;;;;3.03;1.80;;;6.60;99.90;;;;;;4976610;28;20213;-73
2022/01/17 10:57:33;;;;;;;3.83;1.50;;;6.80;99.90;;;;;;4975471;28;20392;-74
2022/01/17 10:59:59;;;;;;;4.67;1.70;;;6.90;99.90;;;;;;4956571;28;20208;-73
2022/01/17 11:02:25;;;;;;;3.70;1.87;;;6.90;99.90;;;;;;4972428;28;20188;-73
2022/01/17 11:04:51;;;;;;;3.73;1.67;;;6.80;99.90;;;;;;4972242;28;20680;-74
2022/01/17 11:07:17;;;;;;;4.77;1.40;;;6.80;99.90;;;;;;4973944;28;20676;-74
2022/01/17 11:09:47;;;;;;;4.97;1.47;;;6.80;99.90;;;;;;4973176;28;20200;-75
2022/01/17 11:12:15;;;;;;;5.67;1.70;;;6.80;99.90;;;;;;4973985;28;20188;-74
2022/01/17 11:14:43;;;;;;;5.37;2.00;;;6.80;99.90;;;;;;4971848;28;20713;-75
2022/01/17 11:17:33;;;;;;;5.33;1.70;;;6.90;99.90;;;;;;4971388;28;20231;-73
2022/01/17 11:20:06;;;;;;;5.70;2.10;;;7.00;99.90;;;;;;4973560;28;20649;-73
2022/01/17 11:22:34;;;;;;;3.70;2.07;;;6.90;99.90;;;;;;4971642;28;20180;-74
2022/01/17 11:25:00;;;;;;;6.00;2.37;;;7.00;99.90;;;;;;4976034;28;20208;-73
2022/01/17 11:27:26;;;;;;;4.23;1.73;;;7.00;99.90;;;;;;4972737;28;20246;-75
2022/01/17 11:29:52;;;;;;;5.17;1.93;;;7.10;99.90;;;;;;4973647;28;20208;-74
2022/01/17 11:32:18;;;;;;;6.00;2.53;;;7.20;99.90;;;;;;4970706;28;20275;-73
2022/01/17 11:34:43;;;;;;;5.50;1.90;;;7.20;99.90;;;;;;4975487;28;20739;-74
2022/01/17 11:37:10;;;;;;;5.33;2.03;;;7.20;99.90;;;;;;4973622;28;20219;-76
2022/01/17 11:39:55;;;;;;;7.03;2.40;;;7.10;99.90;;;;;;4976325;28;20185;-74
2022/01/17 11:42:30;;;;;;;5.20;1.80;;;7.10;99.90;;;;;;4974783;28;20275;-74
2022/01/17 11:44:56;;;;;;;6.37;2.03;;;7.10;99.90;;;;;;4976610;28;20200;-73
2022/01/17 11:47:52;;;;;;;4.83;2.50;;;7.00;99.90;;;;;;4973067;28;20203;-73
2022/01/17 11:50:44;;;;;;;11.27;2.50;;;7.00;99.90;;;;;;4975171;28;20539;-73
2022/01/17 11:53:10;;;;;;;6.60;2.13;;;7.00;99.90;;;;;;4963140;28;20216;-73
2022/01/17 11:55:39;;;;;;;4.80;2.13;;;7.00;99.90;;;;;;4973848;28;20184;-73
2022/01/17 11:58:29;;;;;;;5.97;2.83;;;6.90;99.90;;;;;;4971180;28;20838;-74
2022/01/17 12:01:00;;;;;;;6.30;2.50;;;7.00;99.90;;;;;;4967052;28;20237;-77
2022/01/17 12:03:53;;;;;;;4.97;1.93;;;7.00;99.90;;;;;;4972382;28;20554;-76
2022/01/17 12:06:27;;;;;;;5.77;2.17;;;7.00;99.90;;;;;;4968176;28;20340;-74
2022/01/17 12:09:27;;;;;;;8.00;2.13;;;7.10;99.90;;;;;;4969956;28;20671;-74
2022/01/17 12:11:56;;;;;;;7.00;2.07;;;7.00;99.90;;;;;;4971103;28;20712;-73
2022/01/17 12:14:29;;;;;;;3.80;1.70;;;7.00;99.90;;;;;;4970982;28;20493;-75
2022/01/17 12:17:25;;;;;;;7.07;2.07;;;6.90;99.90;;;;;;4962178;28;20369;-74
2022/01/17 12:20:14;;;;;;;4.20;2.40;;;6.90;99.90;;;;;;4972398;28;20191;-72
2022/01/17 12:22:39;;;;;;;4.83;2.20;;;6.90;99.90;;;;;;4955616;28;20184;-75
2022/01/17 12:25:32;;;;;;;6.57;2.67;;;6.70;99.90;;;;;;4970685;28;20214;-72
2022/01/17 12:28:03;;;;;;;7.13;2.70;;;6.70;99.90;;;;;;4975148;28;20243;-71
2022/01/17 12:30:52;;;;;;;4.67;2.37;;;6.70;99.90;;;;;;4974244;28;20672;-72
2022/01/17 12:33:27;;;;;;;4.60;2.77;;;6.60;99.90;;;;;;4969877;28;20704;-70
2022/01/17 12:35:55;;;;;;;5.23;2.87;;;6.60;99.90;;;;;;4971384;28;20573;-74
2022/01/17 12:38:39;;;;;;;6.83;3.30;;;6.60;99.90;;;;;;4977741;28;20219;-73
2022/01/17 12:41:05;;;;;;;8.37;3.93;;;6.60;99.90;;;;;;4972656;28;20455;-74
2022/01/17 12:43:34;;;;;;;6.40;3.13;;;6.60;99.90;;;;;;4976699;28;20323;-72
2022/01/17 12:46:04;;;;;;;5.70;2.60;;;6.70;99.90;;;;;;4972014;28;20228;-74
2022/01/17 12:48:33;;;;;;;6.43;1.90;;;6.70;99.90;;;;;;4979515;28;20195;-73
2022/01/17 12:51:01;;;;;;;6.23;2.53;;;6.80;99.90;;;;;;4968004;28;20259;-74
2022/01/17 12:53:27;;;;;;;5.27;2.10;;;6.90;99.90;;;;;;4973448;28;20478;-74
2022/01/17 12:56:07;;;;;;;3.50;2.37;;;6.90;99.90;;;;;;4970600;28;20924;-75
2022/01/17 12:58:36;;;;;;;4.07;2.17;;;7.00;99.90;;;;;;4968753;28;20212;-74
2022/01/17 13:01:06;;;;;;;4.57;1.90;;;7.20;99.90;;;;;;4969046;28;20189;-74
2022/01/17 13:03:35;;;;;;;5.37;1.50;;;7.40;99.90;;;;;;4977741;28;20231;-74
2022/01/17 13:06:03;;;;;;;4.23;1.37;;;7.60;99.90;;;;;;4975495;28;20599;-73
2022/01/17 13:08:30;;;;;;;5.43;1.13;;;7.40;99.90;;;;;;4971218;28;20193;-73
2022/01/17 13:10:56;;;;;;;3.43;0.90;;;7.00;99.90;;;;;;4975293;28;20200;-74
2022/01/17 13:13:23;;;;;;;1.23;0.90;;;6.60;99.90;;;;;;4973090;28;20207;-71
2022/01/17 13:16:02;;;;;;;2.83;0.70;;;6.30;99.90;;;;;;4974317;28;20190;-73
2022/01/17 13:18:29;;;;;;;7.17;1.47;;;6.20;99.90;;;;;;4971888;28;20218;-73
2022/01/17 13:20:57;;;;;;;2.80;1.03;;;6.20;99.90;;;;;;4974085;28;20188;-73
2022/01/17 13:23:31;;;;;;;5.30;1.20;;;6.30;99.90;;;;;;4967402;28;20557;-72
2022/01/17 13:25:57;;;;;;;6.27;1.50;;;6.40;99.90;;;;;;4974105;28;20213;-75
2022/01/17 13:28:23;;;;;;;5.63;1.40;;;6.40;99.90;;;;;;4971461;28;20699;-72
2022/01/17 13:30:49;;;;;;;6.30;2.10;;;6.50;99.90;;;;;;4975053;28;20192;-72